Time;durP1;ratioP1;P1;durP2;ratioP2;P2;SDS_P1;SDS_P2;PMS_P1;PMS_P2;Temp;Humidity;BMP_temperature;BMP_pressure;BME280_temperature;BME280_humidity;BME280_pressure;Samples;Min_cycle;Max_cycle;Signal;HPM_P1;HPM_P2
2022/04/06 00:00:12;;;;;;;18.08;10.75;;;10.90;87.60;;;;;;5080364;28;20390;-72
2022/04/06 00:02:39;;;;;;;18.08;11.00;;;10.90;87.60;;;;;;5082598;28;20028;-71
2022/04/06 00:05:08;;;;;;;17.92;10.60;;;10.90;87.60;;;;;;5075616;28;20383;-71
2022/04/06 00:07:33;;;;;;;20.50;12.07;;;10.90;87.60;;;;;;5095957;28;20367;-70
2022/04/06 00:09:59;;;;;;;17.77;11.27;;;10.90;87.50;;;;;;5082175;28;20035;-70
2022/04/06 00:12:25;;;;;;;15.68;9.40;;;10.90;87.50;;;;;;5088068;28;20035;-70
2022/04/06 00:14:50;;;;;;;18.20;10.30;;;10.90;87.50;;;;;;5080560;28;20028;-70
2022/04/06 00:17:16;;;;;;;18.88;10.45;;;10.90;87.40;;;;;;5085250;28;20035;-70
2022/04/06 00:19:42;;;;;;;14.70;9.07;;;10.90;87.40;;;;;;5078821;28;20477;-70
2022/04/06 00:22:08;;;;;;;15.80;8.90;;;10.90;87.30;;;;;;5077837;28;20577;-70
2022/04/06 00:24:34;;;;;;;18.60;10.02;;;10.90;87.20;;;;;;5079504;28;20039;-71
2022/04/06 00:26:59;;;;;;;17.85;10.20;;;10.90;87.20;;;;;;5085195;28;20036;-69
2022/04/06 00:29:25;;;;;;;19.15;10.18;;;10.90;87.10;;;;;;5085191;28;20379;-69
2022/04/06 00:31:50;;;;;;;17.17;9.30;;;10.80;87.10;;;;;;5081365;28;20036;-70
2022/04/06 00:34:16;;;;;;;13.50;8.70;;;10.90;87.10;;;;;;5083230;28;20103;-70
2022/04/06 00:36:42;;;;;;;16.45;9.65;;;10.90;87.00;;;;;;5090465;28;20055;-70
2022/04/06 00:39:07;;;;;;;14.38;7.97;;;10.90;86.90;;;;;;5098003;28;20078;-70
2022/04/06 00:41:33;;;;;;;14.88;8.10;;;10.90;86.90;;;;;;5082412;28;20098;-70
2022/04/06 00:44:14;;;;;;;15.65;9.20;;;10.90;86.80;;;;;;5095411;28;20429;-70
2022/04/06 00:46:40;;;;;;;16.15;9.25;;;10.90;86.80;;;;;;5090607;28;20039;-70
2022/04/06 00:49:11;;;;;;;14.35;8.52;;;10.90;86.70;;;;;;5082668;28;20100;-70
2022/04/06 00:51:38;;;;;;;16.17;8.27;;;10.90;86.60;;;;;;5082816;28;20032;-70
2022/04/06 00:54:04;;;;;;;15.05;7.82;;;10.90;86.60;;;;;;5083709;28;20032;-69
2022/04/06 00:56:29;;;;;;;18.50;11.18;;;10.90;86.50;;;;;;5102031;28;20051;-70
2022/04/06 00:58:56;;;;;;;18.73;9.80;;;10.90;86.30;;;;;;5096630;28;20048;-70
2022/04/06 01:01:21;;;;;;;21.02;9.88;;;10.90;86.40;;;;;;5090895;28;20538;-70
2022/04/06 01:03:47;;;;;;;17.30;8.68;;;10.90;86.30;;;;;;5089714;28;20024;-70
2022/04/06 01:06:12;;;;;;;17.77;9.25;;;10.90;86.40;;;;;;5081233;28;20012;-70
2022/04/06 01:08:38;;;;;;;19.15;9.40;;;10.80;86.30;;;;;;5085661;28;20470;-70
2022/04/06 01:11:03;;;;;;;16.45;9.80;;;10.90;86.30;;;;;;5078758;28;20020;-70
2022/04/06 01:13:29;;;;;;;17.17;8.65;;;10.80;86.20;;;;;;5085761;28;20028;-71
2022/04/06 01:15:55;;;;;;;17.75;9.40;;;10.80;86.30;;;;;;5081967;28;20023;-71
2022/04/06 01:18:20;;;;;;;16.73;9.70;;;10.80;86.20;;;;;;5090637;28;20078;-71
2022/04/06 01:20:46;;;;;;;18.30;9.48;;;10.80;86.20;;;;;;5088191;28;20048;-71
2022/04/06 01:23:11;;;;;;;16.88;9.00;;;10.80;86.20;;;;;;5087832;28;20016;-72
2022/04/06 01:25:38;;;;;;;21.95;11.90;;;10.80;86.30;;;;;;5071420;28;20024;-72
2022/04/06 01:28:04;;;;;;;18.27;10.50;;;10.70;86.20;;;;;;5085872;28;20067;-72
2022/04/06 01:30:30;;;;;;;15.55;8.32;;;10.70;86.20;;;;;;5081602;28;20036;-71
2022/04/06 01:32:58;;;;;;;17.20;10.23;;;10.70;86.30;;;;;;5084948;28;20077;-71
2022/04/06 01:35:25;;;;;;;19.70;10.60;;;10.70;86.20;;;;;;5087743;28;20107;-71
2022/04/06 01:37:50;;;;;;;15.75;9.00;;;10.70;86.20;;;;;;5086417;28;20032;-71
2022/04/06 01:40:16;;;;;;;20.92;9.10;;;10.70;86.20;;;;;;5084120;28;20020;-71
2022/04/06 01:42:41;;;;;;;20.80;10.57;;;10.70;86.20;;;;;;5085818;28;20021;-70
2022/04/06 01:45:08;;;;;;;21.30;10.15;;;10.70;86.10;;;;;;5082290;28;20028;-72
2022/04/06 01:47:34;;;;;;;15.60;8.50;;;10.70;86.10;;;;;;5096084;28;20367;-72
2022/04/06 01:52:44;;;;;;;14.48;7.68;;;10.80;86.10;;;;;;5081806;28;20085;-72
2022/04/06 01:55:12;;;;;;;17.10;8.60;;;10.80;86.00;;;;;;5081357;28;20116;-72
2022/04/06 01:57:39;;;;;;;21.08;9.70;;;10.80;85.90;;;;;;5094252;28;20070;-72
2022/04/06 02:00:09;;;;;;;16.08;7.97;;;10.80;85.80;;;;;;5088725;28;20024;-72
2022/04/06 02:02:36;;;;;;;15.07;8.85;;;10.80;85.80;;;;;;5103401;28;20038;-72
2022/04/06 02:05:02;;;;;;;17.88;7.95;;;10.80;85.80;;;;;;5080181;28;20549;-70
2022/04/06 02:07:27;;;;;;;16.00;8.13;;;10.70;85.80;;;;;;5086668;28;20390;-70
2022/04/06 02:09:53;;;;;;;17.27;8.18;;;10.70;85.70;;;;;;5082358;28;20029;-70
2022/04/06 02:12:21;;;;;;;13.23;7.65;;;10.70;85.80;;;;;;5080785;28;20494;-71
2022/04/06 02:14:46;;;;;;;18.30;8.23;;;10.70;85.60;;;;;;5081538;28;20398;-70
2022/04/06 02:17:12;;;;;;;14.98;7.20;;;10.70;85.60;;;;;;5083790;28;20021;-70
2022/04/06 02:19:38;;;;;;;15.20;7.38;;;10.70;85.60;;;;;;5079917;28;20025;-70
2022/04/06 02:22:06;;;;;;;16.55;6.95;;;10.70;85.60;;;;;;5076330;28;20025;-71
2022/04/06 02:24:32;;;;;;;18.35;8.52;;;10.70;85.50;;;;;;5078845;28;20510;-71
2022/04/06 02:26:58;;;;;;;16.67;7.80;;;10.70;85.40;;;;;;5085671;28;20028;-71
2022/04/06 02:29:24;;;;;;;12.98;7.03;;;10.60;85.40;;;;;;5081283;28;20031;-70
2022/04/06 02:31:50;;;;;;;14.45;5.93;;;10.70;85.40;;;;;;5076138;28;20036;-70
2022/04/06 02:34:15;;;;;;;13.43;6.05;;;10.60;85.30;;;;;;5077132;28;20032;-70
2022/04/06 02:36:41;;;;;;;12.50;5.72;;;10.60;85.30;;;;;;5085257;28;20089;-70
2022/04/06 02:39:06;;;;;;;14.93;7.07;;;10.60;85.20;;;;;;5087337;28;20123;-70
2022/04/06 02:41:32;;;;;;;14.52;6.88;;;10.60;85.80;;;;;;5082608;28;20023;-70
2022/04/06 02:43:58;;;;;;;11.32;6.03;;;10.60;85.10;;;;;;5070843;28;20515;-70
2022/04/06 02:46:23;;;;;;;11.18;6.13;;;10.60;85.10;;;;;;5080096;28;20086;-70
2022/04/06 02:48:49;;;;;;;11.07;5.43;;;10.60;85.10;;;;;;5079212;28;20402;-70
2022/04/06 02:51:14;;;;;;;13.57;6.38;;;10.60;85.10;;;;;;5077158;28;20559;-70
2022/04/06 02:53:40;;;;;;;14.02;6.60;;;10.60;85.00;;;;;;5080260;28;20025;-71
2022/04/06 02:56:05;;;;;;;11.60;5.68;;;10.60;84.90;;;;;;5083935;28;20047;-71
2022/04/06 02:58:31;;;;;;;13.40;6.00;;;10.60;85.00;;;;;;5076067;28;20030;-71
2022/04/06 03:00:56;;;;;;;12.10;6.38;;;10.60;84.80;;;;;;5083820;28;20490;-71
2022/04/06 03:03:23;;;;;;;13.77;5.80;;;10.60;84.80;;;;;;5084611;28;20029;-71
2022/04/06 03:05:48;;;;;;;13.77;6.35;;;10.50;84.50;;;;;;5069357;28;20024;-71
2022/04/06 03:08:15;;;;;;;11.20;5.43;;;10.50;84.40;;;;;;5079599;28;20099;-70
2022/04/06 03:10:40;;;;;;;13.18;5.40;;;10.60;84.40;;;;;;5080355;28;20108;-70
2022/04/06 03:13:06;;;;;;;11.10;5.30;;;10.60;84.30;;;;;;5088739;28;20027;-69
2022/04/06 03:15:31;;;;;;;11.65;5.50;;;10.50;84.10;;;;;;5080564;28;20031;-69
2022/04/06 03:17:57;;;;;;;11.55;5.38;;;10.50;84.60;;;;;;5087305;28;20111;-72
2022/04/06 03:20:22;;;;;;;12.07;5.00;;;10.50;83.90;;;;;;5075905;28;20020;-72
2022/04/06 03:22:48;;;;;;;8.75;3.85;;;10.50;83.80;;;;;;5084697;28;20081;-71
2022/04/06 03:25:14;;;;;;;8.38;4.20;;;10.50;83.70;;;;;;5069859;28;20020;-71
2022/04/06 03:27:39;;;;;;;11.38;4.57;;;10.50;83.70;;;;;;5083651;28;20466;-71
2022/04/06 03:30:06;;;;;;;10.88;4.90;;;10.50;83.40;;;;;;5079188;28;20107;-71
2022/04/06 03:32:32;;;;;;;8.48;4.80;;;10.50;83.20;;;;;;5075347;28;20555;-71
2022/04/06 03:34:58;;;;;;;7.97;4.20;;;10.50;83.10;;;;;;5082743;28;20027;-71
2022/04/06 03:37:24;;;;;;;11.93;5.20;;;10.40;82.90;;;;;;5083830;28;20019;-71
2022/04/06 03:39:50;;;;;;;10.50;4.07;;;10.40;82.70;;;;;;5076364;28;20036;-71
2022/04/06 03:42:15;;;;;;;8.90;4.18;;;10.40;82.60;;;;;;5085516;28;20091;-71
2022/04/06 03:44:41;;;;;;;14.25;4.60;;;10.40;82.60;;;;;;5075144;28;20027;-71
2022/04/06 03:47:06;;;;;;;9.43;4.43;;;10.40;82.30;;;;;;5086051;28;20028;-71
2022/04/06 03:49:32;;;;;;;9.73;4.00;;;10.40;82.00;;;;;;5083873;28;20073;-71
2022/04/06 03:51:58;;;;;;;10.07;4.03;;;10.40;82.00;;;;;;5084223;28;20020;-70
2022/04/06 03:54:23;;;;;;;7.40;3.05;;;10.30;81.70;;;;;;5085758;28;20011;-70
2022/04/06 03:56:49;;;;;;;9.25;3.47;;;10.30;81.70;;;;;;5076751;28;20662;-70
2022/04/06 03:59:14;;;;;;;6.35;3.00;;;10.30;81.50;;;;;;5080169;28;20040;-71
2022/04/06 04:01:40;;;;;;;7.35;3.28;;;10.30;81.50;;;;;;5087905;28;20082;-71
2022/04/06 04:04:05;;;;;;;8.05;3.40;;;10.30;81.40;;;;;;5085742;28;20032;-71
2022/04/06 04:06:31;;;;;;;7.05;3.63;;;10.30;81.20;;;;;;5075723;28;20025;-70
2022/04/06 04:08:57;;;;;;;7.40;3.00;;;10.20;81.20;;;;;;5087959;28;20035;-71
2022/04/06 04:11:23;;;;;;;7.10;3.13;;;10.20;81.20;;;;;;5089113;28;20028;-71
2022/04/06 04:13:48;;;;;;;6.97;2.90;;;10.20;80.90;;;;;;5087022;28;20023;-71
2022/04/06 04:16:14;;;;;;;6.57;2.92;;;10.20;80.90;;;;;;5077565;28;20029;-71
2022/04/06 04:18:40;;;;;;;5.82;2.60;;;10.20;80.90;;;;;;5075374;28;20401;-70
2022/04/06 04:23:50;;;;;;;6.30;2.88;;;10.20;80.70;;;;;;5084290;28;20043;-71
2022/04/06 04:26:16;;;;;;;6.85;2.45;;;10.20;80.50;;;;;;5079747;28;20075;-71
2022/04/06 04:28:41;;;;;;;6.60;2.50;;;10.20;80.40;;;;;;5092855;28;20048;-71
2022/04/06 04:31:07;;;;;;;5.80;2.50;;;10.20;80.40;;;;;;5081641;28;20110;-71
2022/04/06 04:33:32;;;;;;;6.57;2.60;;;10.20;80.40;;;;;;5084273;28;20052;-71
2022/04/06 04:35:58;;;;;;;6.18;2.40;;;10.20;80.40;;;;;;5082286;28;20054;-71
2022/04/06 04:38:36;;;;;;;6.05;2.42;;;10.20;80.30;;;;;;5083980;28;20024;-70
2022/04/06 04:41:03;;;;;;;5.45;2.10;;;10.20;80.40;;;;;;5081806;28;20024;-71
2022/04/06 04:43:28;;;;;;;6.00;2.30;;;10.20;80.30;;;;;;5086738;28;20016;-71
2022/04/06 04:45:54;;;;;;;5.38;2.30;;;10.20;79.90;;;;;;5083157;28;20612;-71
2022/04/06 04:48:19;;;;;;;6.38;2.13;;;10.20;80.10;;;;;;5086898;28;20147;-71
2022/04/06 04:50:45;;;;;;;5.55;2.45;;;10.20;80.70;;;;;;5088814;28;20512;-71
2022/04/06 04:53:11;;;;;;;6.55;2.70;;;10.20;80.00;;;;;;5083317;28;20502;-71
2022/04/06 04:55:36;;;;;;;6.53;2.72;;;10.20;80.00;;;;;;5084909;28;20055;-71
2022/04/06 04:58:02;;;;;;;6.55;2.95;;;10.20;79.90;;;;;;5080215;28;20029;-72
2022/04/06 05:00:28;;;;;;;5.43;2.58;;;10.20;79.80;;;;;;5086052;28;20065;-72
2022/04/06 05:02:53;;;;;;;4.50;2.33;;;10.10;79.60;;;;;;5080892;28;20020;-71
2022/04/06 05:05:19;;;;;;;7.18;2.97;;;10.10;79.80;;;;;;5084753;28;20024;-72
2022/04/06 05:07:45;;;;;;;5.30;2.45;;;10.10;79.60;;;;;;5080831;28;20028;-71
2022/04/06 05:10:10;;;;;;;4.28;2.10;;;10.10;79.60;;;;;;5088190;28;20027;-71
2022/04/06 05:12:36;;;;;;;8.43;2.50;;;10.20;79.80;;;;;;5078703;28;20035;-72
2022/04/06 05:15:04;;;;;;;6.38;2.38;;;10.10;79.50;;;;;;5084276;28;20103;-72
2022/04/06 05:17:30;;;;;;;8.32;3.08;;;10.10;79.60;;;;;;5080219;28;20386;-72
2022/04/06 05:19:56;;;;;;;6.00;2.67;;;10.10;79.50;;;;;;5078388;28;20028;-72
2022/04/06 05:22:21;;;;;;;6.10;2.60;;;10.10;79.40;;;;;;5074886;28;20032;-71
2022/04/06 05:24:47;;;;;;;7.32;2.95;;;10.10;79.10;;;;;;5080802;28;20723;-72
2022/04/06 05:27:13;;;;;;;7.05;2.80;;;10.10;79.20;;;;;;5078918;28;20042;-71
2022/04/06 05:29:39;;;;;;;6.13;2.60;;;10.10;79.20;;;;;;5077477;28;20470;-70
2022/04/06 05:32:05;;;;;;;6.28;3.00;;;10.10;79.20;;;;;;5072568;28;20402;-70
2022/04/06 05:34:30;;;;;;;7.22;2.78;;;10.10;79.20;;;;;;5086818;28;20020;-70
2022/04/06 05:36:56;;;;;;;7.78;3.53;;;10.10;79.30;;;;;;5088487;28;20077;-71
2022/04/06 05:39:22;;;;;;;6.70;2.90;;;10.10;79.30;;;;;;5081626;28;20035;-70
2022/04/06 05:41:49;;;;;;;7.88;3.10;;;10.20;79.30;;;;;;5078795;28;20099;-68
2022/04/06 05:44:15;;;;;;;8.65;3.08;;;10.20;79.20;;;;;;5084634;28;20077;-69
2022/04/06 05:46:40;;;;;;;8.95;3.53;;;10.20;79.10;;;;;;5089108;28;20482;-69
2022/04/06 05:49:06;;;;;;;7.20;3.60;;;10.10;79.00;;;;;;5083087;28;20032;-69
2022/04/06 05:51:32;;;;;;;5.00;2.95;;;10.20;79.10;;;;;;5077101;28;20070;-69
2022/04/06 05:53:58;;;;;;;7.22;3.03;;;10.20;79.10;;;;;;5085077;28;20024;-69
2022/04/06 05:56:24;;;;;;;6.18;3.20;;;10.20;79.10;;;;;;5081256;28;20025;-69
2022/04/06 05:58:49;;;;;;;7.10;2.88;;;10.20;79.00;;;;;;5073081;28;20452;-69
2022/04/06 06:01:15;;;;;;;8.70;3.35;;;10.20;79.00;;;;;;5077602;28;20359;-69
2022/04/06 06:03:40;;;;;;;4.90;2.70;;;10.20;79.10;;;;;;5074398;28;20581;-69
2022/04/06 06:06:06;;;;;;;8.55;3.60;;;10.30;79.10;;;;;;5097558;28;20016;-69
2022/04/06 06:08:31;;;;;;;6.30;3.60;;;10.30;78.90;;;;;;5084052;28;20487;-69
2022/04/06 06:10:57;;;;;;;7.70;3.00;;;10.30;78.70;;;;;;5087688;28;20024;-69
2022/04/06 06:13:23;;;;;;;10.93;4.35;;;10.20;78.70;;;;;;5082795;28;20039;-68
2022/04/06 06:15:48;;;;;;;8.50;4.05;;;10.30;78.70;;;;;;5075702;28;20027;-68
2022/04/06 06:18:14;;;;;;;7.80;3.47;;;10.20;78.60;;;;;;5084158;28;20482;-69
2022/04/06 06:20:40;;;;;;;8.07;3.47;;;10.30;78.80;;;;;;5072168;28;20044;-69
2022/04/06 06:23:06;;;;;;;7.85;3.28;;;10.30;78.70;;;;;;5084431;28;20017;-69
2022/04/06 06:25:31;;;;;;;7.35;3.50;;;10.30;78.70;;;;;;5097613;28;20505;-69
2022/04/06 06:27:57;;;;;;;8.60;3.75;;;10.40;78.70;;;;;;5099396;28;20723;-69
2022/04/06 06:30:26;;;;;;;4.75;3.20;;;10.40;78.70;;;;;;5070524;28;20120;-69
2022/04/06 06:32:52;;;;;;;8.73;4.20;;;10.40;78.70;;;;;;5080622;28;20044;-69
2022/04/06 06:35:20;;;;;;;8.98;4.05;;;10.40;78.70;;;;;;5087702;28;20020;-69
2022/04/06 06:37:47;;;;;;;10.40;4.03;;;10.50;78.80;;;;;;5088746;28;20035;-69
2022/04/06 06:40:13;;;;;;;5.50;3.17;;;10.50;78.80;;;;;;5087015;28;20050;-69
2022/04/06 06:42:39;;;;;;;9.57;4.60;;;10.50;78.80;;;;;;5084602;28;20020;-69
2022/04/06 06:45:04;;;;;;;9.63;4.00;;;10.60;78.70;;;;;;5084757;28;20022;-69
2022/04/06 06:47:30;;;;;;;9.98;4.30;;;10.50;78.60;;;;;;5091897;28;20681;-69
2022/04/06 06:49:55;;;;;;;12.15;4.75;;;10.60;78.80;;;;;;5084197;28;20052;-69
2022/04/06 06:52:21;;;;;;;9.98;4.15;;;10.50;78.80;;;;;;5082978;28;20028;-69
2022/04/06 06:54:46;;;;;;;9.55;4.10;;;10.60;78.90;;;;;;5085280;28;20116;-69
2022/04/06 06:57:12;;;;;;;11.27;4.63;;;10.60;78.90;;;;;;5083872;28;20051;-69
2022/04/06 06:59:37;;;;;;;9.63;4.18;;;10.50;78.90;;;;;;5089544;28;20021;-69
2022/04/06 07:02:03;;;;;;;13.00;5.00;;;10.50;78.90;;;;;;5083114;28;20012;-70
2022/04/06 07:04:29;;;;;;;11.80;4.90;;;10.50;78.90;;;;;;5088118;28;20379;-70
2022/04/06 07:06:54;;;;;;;9.60;4.80;;;10.50;78.90;;;;;;5086946;28;20034;-69
2022/04/06 07:09:20;;;;;;;8.85;4.10;;;10.50;78.80;;;;;;5088184;28;20103;-69
2022/04/06 07:11:46;;;;;;;10.80;4.20;;;10.50;78.90;;;;;;5093241;28;20028;-69
2022/04/06 07:14:11;;;;;;;13.27;4.95;;;10.50;78.80;;;;;;5092839;28;20019;-69
2022/04/06 07:16:36;;;;;;;10.35;4.28;;;10.50;78.80;;;;;;5099069;28;20106;-69
2022/04/06 07:19:02;;;;;;;8.88;3.67;;;10.60;78.80;;;;;;5089103;28;20021;-70
2022/04/06 07:21:27;;;;;;;8.20;3.50;;;10.60;78.70;;;;;;5090866;28;20020;-69
2022/04/06 07:23:55;;;;;;;8.65;3.70;;;10.60;78.60;;;;;;5082191;28;20076;-68
2022/04/06 07:26:21;;;;;;;6.22;3.13;;;10.60;78.50;;;;;;5079568;28;20020;-70
2022/04/06 07:28:47;;;;;;;7.47;3.10;;;10.70;78.40;;;;;;5076301;28;20077;-69
2022/04/06 07:31:13;;;;;;;7.78;3.03;;;10.70;78.80;;;;;;5100875;28;20028;-70
2022/04/06 07:33:40;;;;;;;6.53;2.78;;;10.70;78.00;;;;;;5080954;28;20023;-70
2022/04/06 07:36:06;;;;;;;8.65;3.75;;;10.80;77.90;;;;;;5085610;28;20016;-70
2022/04/06 07:38:32;;;;;;;5.60;2.58;;;10.80;77.80;;;;;;5085111;28;20027;-70
2022/04/06 07:40:58;;;;;;;8.18;2.90;;;10.80;77.60;;;;;;5081739;28;20024;-71
2022/04/06 07:43:24;;;;;;;8.55;2.95;;;10.80;76.80;;;;;;5086795;28;20023;-70
2022/04/06 07:45:49;;;;;;;8.63;3.30;;;10.70;76.60;;;;;;5079541;28;20089;-70
2022/04/06 07:48:15;;;;;;;8.18;2.60;;;10.80;76.80;;;;;;5087044;28;20023;-69
2022/04/06 07:50:41;;;;;;;6.65;2.60;;;10.80;76.50;;;;;;5082190;28;20107;-70
2022/04/06 07:53:06;;;;;;;3.90;1.90;;;10.80;76.40;;;;;;5085205;28;20107;-70
2022/04/06 07:55:33;;;;;;;5.93;2.45;;;10.80;76.20;;;;;;5077776;28;20060;-70
2022/04/06 07:57:58;;;;;;;8.32;2.42;;;10.90;76.00;;;;;;5086011;28;20024;-69
2022/04/06 08:00:24;;;;;;;4.05;2.05;;;10.90;75.50;;;;;;5081604;28;20018;-70
2022/04/06 08:02:51;;;;;;;4.50;2.15;;;10.90;75.10;;;;;;5077599;28;20110;-70
2022/04/06 08:05:18;;;;;;;5.78;2.13;;;11.00;75.00;;;;;;5084652;28;20028;-70
2022/04/06 08:07:44;;;;;;;5.60;1.90;;;11.00;74.90;;;;;;5069610;28;20339;-70
2022/04/06 08:10:14;;;;;;;5.20;2.00;;;11.00;74.50;;;;;;5075940;28;20023;-70
2022/04/06 08:12:41;;;;;;;5.60;1.85;;;11.00;74.40;;;;;;5088007;28;20054;-69
2022/04/06 08:15:08;;;;;;;4.32;2.10;;;11.10;74.30;;;;;;5083498;28;20082;-68
2022/04/06 08:17:38;;;;;;;4.25;2.00;;;11.10;73.90;;;;;;5080848;28;20052;-69
2022/04/06 08:20:05;;;;;;;4.38;2.00;;;11.20;73.60;;;;;;5073919;28;20017;-69
2022/04/06 08:22:38;;;;;;;4.15;1.83;;;11.20;73.30;;;;;;5081033;28;20099;-69
2022/04/06 08:25:12;;;;;;;4.13;1.77;;;11.30;73.30;;;;;;5098304;28;20082;-69
2022/04/06 08:27:43;;;;;;;6.38;1.80;;;11.30;73.10;;;;;;5085585;28;20028;-69
2022/04/06 08:30:39;;;;;;;6.40;2.40;;;11.30;72.50;;;;;;5103896;28;20044;-69
2022/04/06 08:33:05;;;;;;;5.15;2.25;;;11.30;72.20;;;;;;5075283;28;20474;-69
2022/04/06 08:35:30;;;;;;;4.40;1.75;;;11.30;72.30;;;;;;5076691;28;20020;-69
2022/04/06 08:37:56;;;;;;;5.45;2.13;;;11.30;72.50;;;;;;5076549;28;20029;-69
2022/04/06 08:40:22;;;;;;;4.70;2.10;;;11.30;72.50;;;;;;5083345;28;20028;-69
2022/04/06 08:43:01;;;;;;;6.15;2.30;;;11.30;72.60;;;;;;5084853;28;20563;-69
2022/04/06 08:45:28;;;;;;;7.28;2.53;;;11.20;72.30;;;;;;5079871;28;20028;-69
2022/04/06 08:47:55;;;;;;;4.80;2.30;;;11.20;72.60;;;;;;5077100;28;20027;-69
2022/04/06 08:50:24;;;;;;;9.77;3.00;;;11.20;72.70;;;;;;5079100;28;20024;-69
2022/04/06 08:52:51;;;;;;;5.68;2.40;;;11.20;72.70;;;;;;5081919;28;20028;-68
2022/04/06 08:55:16;;;;;;;6.78;2.47;;;11.20;73.10;;;;;;5083065;28;20684;-68
2022/04/06 08:57:42;;;;;;;4.80;2.15;;;11.20;73.30;;;;;;5084535;28;20024;-68
2022/04/06 09:00:10;;;;;;;5.45;2.50;;;11.20;73.60;;;;;;5081391;28;20021;-68
2022/04/06 09:02:35;;;;;;;6.38;2.97;;;11.30;74.00;;;;;;5084832;28;20032;-68
2022/04/06 09:05:03;;;;;;;4.80;2.83;;;11.20;74.40;;;;;;5080658;28;20021;-68
2022/04/06 09:07:30;;;;;;;8.60;3.60;;;11.10;75.00;;;;;;5086537;28;20051;-68
2022/04/06 09:09:56;;;;;;;6.32;2.70;;;11.10;75.50;;;;;;5081195;28;20111;-68
2022/04/06 09:12:24;;;;;;;5.63;2.78;;;11.10;75.70;;;;;;5081953;28;20036;-68
2022/04/06 09:15:04;;;;;;;5.65;2.90;;;11.10;76.10;;;;;;5090549;28;20031;-68
2022/04/06 09:17:29;;;;;;;7.93;3.15;;;11.10;76.30;;;;;;5098114;28;20099;-68
2022/04/06 09:19:59;;;;;;;5.60;3.00;;;11.20;76.60;;;;;;5109483;28;20095;-68
2022/04/06 09:22:24;;;;;;;9.48;3.45;;;11.20;76.90;;;;;;5096443;28;20103;-68
2022/04/06 09:24:58;;;;;;;6.00;3.13;;;11.10;77.00;;;;;;5097674;28;20056;-68
2022/04/06 09:27:30;;;;;;;7.15;3.45;;;11.00;77.40;;;;;;5106902;28;20088;-68
2022/04/06 09:29:56;;;;;;;;;;;11.00;77.80;;;;;;5093198;28;20047;-68
2022/04/06 09:32:22;;;;;;;9.52;4.28;;;10.90;78.10;;;;;;5096579;28;20012;-68
2022/04/06 09:34:47;;;;;;;9.82;4.30;;;10.80;78.60;;;;;;5096421;28;20485;-68
2022/04/06 09:37:31;;;;;;;6.32;3.25;;;10.70;79.00;;;;;;5096158;28;20036;-68
2022/04/06 09:40:07;;;;;;;6.55;3.92;;;10.70;79.40;;;;;;5095581;28;20969;-68
2022/04/06 09:42:33;;;;;;;6.22;3.50;;;10.60;79.70;;;;;;5093135;28;20518;-68
2022/04/06 09:47:54;;;;;;;9.25;4.05;;;10.60;80.10;;;;;;5086523;28;20040;-68
2022/04/06 09:50:25;;;;;;;8.38;4.50;;;10.60;80.60;;;;;;5086999;28;20393;-68
2022/04/06 09:52:52;;;;;;;10.25;5.45;;;10.50;80.90;;;;;;5087836;28;20094;-68
2022/04/06 09:55:20;;;;;;;9.15;4.95;;;10.50;81.40;;;;;;5091646;28;20027;-68
2022/04/06 09:57:51;;;;;;;8.82;4.72;;;10.50;81.70;;;;;;5092019;28;20504;-69
2022/04/06 10:00:22;;;;;;;6.65;4.43;;;10.50;81.90;;;;;;5095337;28;20024;-69
2022/04/06 10:03:09;;;;;;;7.50;3.78;;;10.50;82.10;;;;;;5090731;28;20035;-69
2022/04/06 10:05:38;;;;;;;10.52;5.50;;;10.60;82.10;;;;;;5095479;28;20030;-69
2022/04/06 10:08:06;;;;;;;7.85;4.40;;;10.60;82.30;;;;;;5091956;28;20052;-69
2022/04/06 10:10:36;;;;;;;7.82;4.30;;;10.60;82.50;;;;;;5094468;28;20023;-69
2022/04/06 10:13:07;;;;;;;10.30;5.15;;;10.60;82.70;;;;;;5090310;28;20394;-69
2022/04/06 10:15:35;;;;;;;12.40;5.75;;;10.60;82.90;;;;;;5089508;28;20047;-69
2022/04/06 10:18:03;;;;;;;9.45;4.95;;;10.50;83.20;;;;;;5086089;28;20031;-70
2022/04/06 10:20:35;;;;;;;9.55;5.13;;;10.50;83.50;;;;;;5084702;28;20421;-69
2022/04/06 10:23:14;;;;;;;13.60;6.10;;;10.50;83.70;;;;;;5083548;28;20675;-69
2022/04/06 10:25:48;;;;;;;7.90;4.97;;;10.40;83.90;;;;;;5079473;28;20032;-69
2022/04/06 10:28:16;;;;;;;11.50;4.57;;;10.40;84.10;;;;;;5088780;28;20024;-69
2022/04/06 10:31:19;;;;;;;8.93;4.88;;;10.50;84.20;;;;;;5082992;28;20032;-69
2022/04/06 10:33:45;;;;;;;8.93;4.80;;;10.50;84.30;;;;;;5092004;28;20038;-69
2022/04/06 10:36:30;;;;;;;11.20;6.15;;;10.40;84.40;;;;;;5102586;28;20436;-67
2022/04/06 10:39:08;;;;;;;9.77;5.00;;;10.40;84.80;;;;;;5082743;28;20109;-69
2022/04/06 10:41:35;;;;;;;11.70;5.53;;;10.40;84.90;;;;;;5084204;28;20016;-68
2022/04/06 10:44:00;;;;;;;9.88;5.43;;;10.50;84.90;;;;;;5079055;28;20028;-68
2022/04/06 10:46:39;;;;;;;8.27;5.13;;;10.50;84.90;;;;;;5083104;28;20103;-68
2022/04/06 10:49:09;;;;;;;9.60;5.40;;;10.40;85.10;;;;;;5078904;28;20497;-68
2022/04/06 10:51:46;;;;;;;8.80;5.28;;;10.40;85.20;;;;;;5081729;28;20062;-68
2022/04/06 10:54:12;;;;;;;7.32;4.63;;;10.40;85.40;;;;;;5081562;28;20024;-68
2022/04/06 10:56:49;;;;;;;7.80;5.45;;;10.40;85.50;;;;;;5089803;28;20027;-68
2022/04/06 10:59:18;;;;;;;10.15;6.00;;;10.40;85.60;;;;;;5085606;28;20486;-68
2022/04/06 11:01:46;;;;;;;7.68;4.32;;;10.40;86.00;;;;;;5087952;28;20023;-68
2022/04/06 11:04:20;;;;;;;8.30;5.00;;;10.40;86.20;;;;;;5091692;28;20014;-68
2022/04/06 11:06:49;;;;;;;6.90;4.50;;;10.40;86.20;;;;;;5079098;28;20107;-68
2022/04/06 11:12:18;;;;;;;6.88;3.90;;;10.40;86.60;;;;;;5078275;28;20501;-68
2022/04/06 11:14:45;;;;;;;8.80;4.65;;;10.40;86.60;;;;;;5076988;28;20026;-68
2022/04/06 11:17:30;;;;;;;13.02;6.60;;;10.50;86.70;;;;;;5078791;28;20036;-68
2022/04/06 11:19:56;;;;;;;9.40;5.82;;;10.40;86.80;;;;;;5082637;28;20499;-68
2022/04/06 11:22:22;;;;;;;9.45;5.78;;;10.40;87.10;;;;;;5076667;28;20047;-68
2022/04/06 11:24:48;;;;;;;9.52;5.82;;;10.40;87.10;;;;;;5084546;28;20091;-68
2022/04/06 11:27:32;;;;;;;11.27;6.03;;;10.50;87.20;;;;;;5082806;28;20089;-68
2022/04/06 11:30:12;;;;;;;8.20;5.80;;;10.50;87.30;;;;;;5086122;28;20031;-68
2022/04/06 11:32:40;;;;;;;9.70;5.68;;;10.60;87.30;;;;;;5074395;28;20033;-68
2022/04/06 11:35:10;;;;;;;9.48;6.05;;;10.60;87.30;;;;;;5087599;28;20027;-68
2022/04/06 11:37:43;;;;;;;8.00;5.45;;;10.60;87.40;;;;;;5079482;28;20366;-68
2022/04/06 11:40:10;;;;;;;5.95;4.40;;;10.70;87.30;;;;;;5089716;28;20084;-68
2022/04/06 11:42:36;;;;;;;8.55;5.63;;;10.70;87.30;;;;;;5082049;28;20027;-68
2022/04/06 11:45:02;;;;;;;9.60;6.50;;;10.80;87.00;;;;;;5081747;28;20028;-68
2022/04/06 11:47:32;;;;;;;9.25;6.28;;;10.80;86.90;;;;;;5088604;28;20505;-68
2022/04/06 11:49:58;;;;;;;9.27;5.75;;;10.80;86.70;;;;;;5087652;28;20673;-68
2022/04/06 11:52:24;;;;;;;7.25;5.03;;;10.90;86.60;;;;;;5083706;28;20063;-68
2022/04/06 11:54:56;;;;;;;13.95;6.45;;;10.90;86.50;;;;;;5088488;28;20059;-68
2022/04/06 11:57:34;;;;;;;9.30;5.53;;;10.90;86.20;;;;;;5084422;28;20605;-68
2022/04/06 11:59:59;;;;;;;6.68;4.90;;;10.80;85.90;;;;;;5076515;28;20367;-68
2022/04/06 12:02:25;;;;;;;7.75;5.32;;;10.80;86.00;;;;;;5087150;28;20107;-68
2022/04/06 12:05:01;;;;;;;8.38;4.65;;;10.80;85.90;;;;;;5088652;28;20028;-68
2022/04/06 12:07:31;;;;;;;7.38;5.38;;;10.90;85.90;;;;;;5086093;28;20036;-67
2022/04/06 12:09:57;;;;;;;7.90;4.82;;;10.90;85.70;;;;;;5082068;28;20556;-67
2022/04/06 12:12:23;;;;;;;8.00;5.38;;;10.90;85.60;;;;;;5086738;28;20024;-68
2022/04/06 12:14:51;;;;;;;6.70;4.72;;;10.90;85.60;;;;;;5088326;28;20111;-68
2022/04/06 12:17:17;;;;;;;7.90;5.30;;;11.00;85.70;;;;;;5087158;28;20031;-68
2022/04/06 12:19:43;;;;;;;6.45;3.80;;;10.90;85.50;;;;;;5083863;28;20074;-68
2022/04/06 12:22:11;;;;;;;8.45;5.10;;;11.00;85.50;;;;;;5082551;28;20024;-68
2022/04/06 12:24:42;;;;;;;7.60;5.20;;;11.10;85.30;;;;;;5078921;28;20376;-68
2022/04/06 12:27:07;;;;;;;8.13;4.20;;;11.10;85.20;;;;;;5085570;28;20039;-69
2022/04/06 12:29:35;;;;;;;9.13;4.60;;;11.20;85.10;;;;;;5086687;28;20028;-68
2022/04/06 12:32:03;;;;;;;9.73;5.22;;;11.20;84.90;;;;;;5086213;28;20029;-68
2022/04/06 12:34:33;;;;;;;7.65;5.25;;;11.20;84.40;;;;;;5085194;28;20031;-69
2022/04/06 12:37:29;;;;;;;7.20;4.25;;;11.20;84.30;;;;;;5086248;28;20020;-68
2022/04/06 12:39:48;;;;;;;8.27;4.85;;;11.20;84.10;;;;;;5082090;28;20494;-68
2022/04/06 12:42:13;;;;;;;7.40;4.78;;;11.30;84.10;;;;;;5088835;28;20017;-69
2022/04/06 12:44:56;;;;;;;5.90;3.90;;;11.30;83.80;;;;;;5088898;28;20967;-69
2022/04/06 12:47:23;;;;;;;7.63;4.88;;;11.30;83.60;;;;;;5092959;28;20035;-68
2022/04/06 12:49:48;;;;;;;6.88;4.40;;;11.30;83.20;;;;;;5083478;28;20024;-70
2022/04/06 12:52:23;;;;;;;7.00;5.18;;;11.30;83.00;;;;;;5087238;28;20020;-68
2022/04/06 12:55:03;;;;;;;6.07;4.13;;;11.30;82.70;;;;;;5082161;28;20028;-69